createdAt,value
2023-06-07T00:00:29.885Z,100.00
2023-06-07T00:03:18.327Z,100.00
2023-06-07T00:05:46.682Z,100.00
2023-06-07T00:08:14.459Z,100.00
2023-06-07T00:10:41.848Z,100.00
2023-06-07T00:13:09.527Z,100.00
2023-06-07T00:15:37.016Z,100.00
2023-06-07T00:18:04.995Z,100.00
2023-06-07T00:20:33.052Z,100.00
2023-06-07T00:23:03.181Z,100.00
2023-06-07T00:25:30.706Z,100.00
2023-06-07T00:28:01.074Z,100.00
2023-06-07T00:30:28.507Z,100.00
2023-06-07T00:32:56.300Z,100.00
2023-06-07T00:35:23.926Z,100.00
2023-06-07T00:37:51.627Z,100.00
2023-06-07T00:40:19.193Z,100.00
2023-06-07T00:42:46.974Z,100.00
2023-06-07T00:45:14.468Z,100.00
2023-06-07T00:47:42.710Z,100.00
2023-06-07T00:50:10.938Z,100.00
2023-06-07T00:52:39.461Z,100.00
2023-06-07T00:55:09.637Z,100.00
2023-06-07T00:57:37.548Z,100.00
2023-06-07T01:00:11.247Z,100.00
2023-06-07T01:02:39.186Z,100.00
2023-06-07T01:05:08.072Z,100.00
2023-06-07T01:07:35.936Z,100.00
2023-06-07T01:10:04.859Z,100.00
2023-06-07T01:12:37.028Z,100.00
2023-06-07T01:15:05.266Z,100.00
2023-06-07T01:17:39.006Z,100.00
2023-06-07T01:20:28.452Z,100.00
2023-06-07T01:23:00.092Z,100.00
2023-06-07T01:25:27.849Z,100.00
2023-06-07T01:27:58.479Z,100.00
2023-06-07T01:30:26.499Z,100.00
2023-06-07T01:32:54.728Z,100.00
2023-06-07T01:35:22.619Z,100.00
2023-06-07T01:37:52.500Z,100.00
2023-06-07T01:40:22.846Z,100.00
2023-06-07T01:42:54.876Z,100.00
2023-06-07T01:45:25.599Z,100.00
2023-06-07T01:47:55.056Z,100.00
2023-06-07T01:50:25.620Z,100.00
2023-06-07T01:52:54.003Z,100.00
2023-06-07T01:55:25.521Z,100.00
2023-06-07T01:58:35.525Z,100.00
2023-06-07T02:01:30.184Z,100.00
2023-06-07T02:04:01.534Z,100.00
2023-06-07T02:06:36.056Z,100.00
2023-06-07T02:09:08.523Z,100.00
2023-06-07T02:11:39.303Z,100.00
2023-06-07T02:14:10.166Z,100.00
2023-06-07T02:16:37.936Z,100.00
2023-06-07T02:19:10.707Z,100.00
2023-06-07T02:21:50.247Z,100.00
2023-06-07T02:24:19.017Z,100.00
2023-06-07T02:26:46.568Z,100.00
2023-06-07T02:29:15.193Z,100.00
2023-06-07T02:31:42.630Z,100.00
2023-06-07T02:34:10.606Z,100.00
2023-06-07T02:36:41.117Z,100.00
2023-06-07T02:39:09.951Z,100.00
2023-06-07T02:41:37.565Z,100.00
2023-06-07T02:44:05.508Z,100.00
2023-06-07T02:46:32.957Z,100.00
2023-06-07T02:49:00.937Z,100.00
2023-06-07T02:51:30.136Z,100.00
2023-06-07T02:53:58.039Z,100.00
2023-06-07T02:56:30.561Z,100.00
2023-06-07T02:58:58.575Z,100.00
2023-06-07T03:01:32.533Z,100.00
2023-06-07T03:04:01.016Z,100.00
2023-06-07T03:06:30.870Z,100.00
2023-06-07T03:09:05.388Z,100.00
2023-06-07T03:11:34.511Z,100.00
2023-06-07T03:14:02.307Z,100.00
2023-06-07T03:16:37.114Z,100.00
2023-06-07T03:19:07.446Z,100.00
2023-06-07T03:21:34.943Z,100.00
2023-06-07T03:24:06.791Z,100.00
2023-06-07T03:26:34.575Z,100.00
2023-06-07T03:29:03.662Z,100.00
2023-06-07T03:31:35.329Z,100.00
2023-06-07T03:34:07.448Z,100.00
2023-06-07T03:36:37.267Z,100.00
2023-06-07T03:39:05.382Z,100.00
2023-06-07T03:41:33.094Z,100.00
2023-06-07T03:44:06.042Z,100.00
2023-06-07T03:46:33.843Z,100.00
2023-06-07T03:49:01.457Z,100.00
2023-06-07T03:51:29.437Z,100.00
2023-06-07T03:54:01.008Z,100.00
2023-06-07T03:56:29.074Z,100.00
2023-06-07T03:58:56.824Z,100.00
2023-06-07T04:01:27.211Z,100.00
2023-06-07T04:03:57.819Z,100.00
2023-06-07T04:06:29.135Z,100.00
2023-06-07T04:08:58.474Z,100.00
2023-06-07T04:11:28.565Z,100.00
2023-06-07T04:13:56.928Z,100.00
2023-06-07T04:16:28.178Z,100.00
2023-06-07T04:18:55.965Z,100.00
2023-06-07T04:21:24.127Z,100.00
2023-06-07T04:23:52.412Z,100.00
2023-06-07T04:26:24.220Z,100.00
2023-06-07T04:28:52.911Z,100.00
2023-06-07T04:31:30.766Z,100.00
2023-06-07T04:34:08.596Z,100.00
2023-06-07T04:36:38.741Z,100.00
2023-06-07T04:39:11.664Z,100.00
2023-06-07T04:41:44.065Z,100.00
2023-06-07T04:44:14.026Z,100.00
2023-06-07T04:46:45.382Z,100.00
2023-06-07T04:49:18.608Z,100.00
2023-06-07T04:51:49.899Z,100.00
2023-06-07T04:54:19.614Z,100.00
2023-06-07T04:56:54.428Z,100.00
2023-06-07T04:59:26.173Z,100.00
2023-06-07T05:01:53.648Z,100.00
2023-06-07T05:04:22.490Z,100.00
2023-06-07T05:07:00.139Z,100.00
2023-06-07T05:09:32.244Z,100.00
2023-06-07T05:12:03.893Z,100.00
2023-06-07T05:14:33.008Z,100.00
2023-06-07T05:17:01.383Z,100.00
2023-06-07T05:19:32.817Z,100.00
2023-06-07T05:22:00.416Z,100.00
2023-06-07T05:24:28.215Z,100.00
2023-06-07T05:26:56.284Z,100.00
2023-06-07T05:29:24.025Z,100.00
2023-06-07T05:31:52.463Z,100.00
2023-06-07T05:34:20.504Z,100.00
2023-06-07T05:36:47.974Z,100.00
2023-06-07T05:39:16.007Z,100.00
2023-06-07T05:41:44.236Z,100.00
2023-06-07T05:44:12.260Z,100.00
2023-06-07T05:46:39.850Z,100.00
2023-06-07T05:49:07.803Z,100.00
2023-06-07T05:51:36.032Z,100.00
2023-06-07T05:54:03.922Z,100.00
2023-06-07T05:56:31.426Z,100.00
2023-06-07T05:58:59.348Z,100.00
2023-06-07T06:01:27.888Z,100.00
2023-06-07T06:03:55.735Z,100.00
2023-06-07T06:06:25.400Z,100.00
2023-06-07T06:08:53.104Z,100.00
2023-06-07T06:11:20.665Z,100.00
2023-06-07T06:13:49.882Z,100.00
2023-06-07T06:16:17.295Z,100.00
2023-06-07T06:18:45.194Z,100.00
2023-06-07T06:21:13.095Z,100.00
2023-06-07T06:23:41.028Z,100.00
2023-06-07T06:26:08.493Z,100.00
2023-06-07T06:28:36.228Z,100.00
2023-06-07T06:31:05.186Z,100.00
2023-06-07T06:33:33.118Z,100.00
2023-06-07T06:36:01.324Z,100.00
2023-06-07T06:38:29.102Z,100.00
2023-06-07T06:40:56.620Z,100.00
2023-06-07T06:43:25.061Z,100.00
2023-06-07T06:45:58.998Z,100.00
2023-06-07T06:48:28.966Z,100.00
2023-06-07T06:50:58.400Z,100.00
2023-06-07T06:53:27.180Z,100.00
2023-06-07T06:55:55.557Z,100.00
2023-06-07T06:58:24.639Z,100.00
2023-06-07T07:00:52.945Z,100.00
2023-06-07T07:03:22.597Z,100.00
2023-06-07T07:05:51.180Z,100.00
2023-06-07T07:08:20.087Z,100.00
2023-06-07T07:10:51.594Z,100.00
2023-06-07T07:13:19.878Z,100.00
2023-06-07T07:15:49.682Z,100.00
2023-06-07T07:18:21.190Z,100.00
2023-06-07T07:20:51.265Z,100.00
2023-06-07T07:23:19.542Z,100.00
2023-06-07T07:25:47.378Z,100.00
2023-06-07T07:28:15.697Z,100.00
2023-06-07T07:30:43.302Z,100.00
2023-06-07T07:33:11.022Z,100.00
2023-06-07T07:35:38.438Z,100.00
2023-06-07T07:38:07.843Z,100.00
2023-06-07T07:40:35.130Z,100.00
2023-06-07T07:43:02.806Z,100.00
2023-06-07T07:45:30.235Z,100.00
2023-06-07T07:47:58.107Z,100.00
2023-06-07T07:50:25.527Z,100.00
2023-06-07T07:52:55.051Z,100.00
2023-06-07T07:55:24.953Z,100.00
2023-06-07T07:57:52.490Z,100.00
2023-06-07T08:00:20.235Z,100.00
2023-06-07T08:02:48.692Z,100.00
2023-06-07T08:05:16.141Z,100.00
2023-06-07T08:07:43.949Z,100.00
2023-06-07T08:10:11.776Z,100.00
2023-06-07T08:12:40.909Z,100.00
2023-06-07T08:15:10.215Z,100.00
2023-06-07T08:17:38.006Z,100.00
2023-06-07T08:20:07.506Z,98.42
2023-06-07T08:22:39.118Z,98.41
2023-06-07T08:25:07.248Z,94.85
2023-06-07T08:27:34.870Z,91.07
2023-06-07T08:30:02.807Z,89.54
2023-06-07T08:32:30.903Z,86.18
2023-06-07T08:34:58.397Z,79.53
2023-06-07T08:37:26.154Z,85.08
2023-06-07T08:39:53.605Z,82.56
2023-06-07T08:42:21.323Z,82.81
2023-06-07T08:44:48.831Z,86.78
2023-06-07T08:47:18.588Z,85.41
2023-06-07T08:49:47.708Z,86.05
2023-06-07T08:52:17.396Z,86.37
2023-06-07T08:54:48.596Z,85.31
2023-06-07T08:57:18.595Z,85.87
2023-06-07T08:59:47.746Z,85.98
2023-06-07T09:02:16.553Z,85.42
2023-06-07T09:04:45.006Z,87.15
2023-06-07T09:07:13.836Z,87.99
2023-06-07T09:09:43.104Z,87.91
2023-06-07T09:12:14.531Z,88.13
2023-06-07T09:14:42.395Z,87.55
2023-06-07T09:17:10.372Z,89.49
2023-06-07T09:19:41.846Z,87.23
2023-06-07T09:22:18.557Z,88.98
2023-06-07T09:24:46.001Z,91.74
2023-06-07T09:27:14.732Z,92.84
2023-06-07T09:29:44.644Z,88.14
2023-06-07T09:32:25.257Z,82.69
2023-06-07T09:34:56.143Z,84.43
2023-06-07T09:37:42.369Z,81.70
2023-06-07T09:40:09.928Z,69.67
2023-06-07T09:42:38.356Z,78.59
2023-06-07T09:45:17.182Z,79.40
2023-06-07T09:47:45.330Z,83.10
2023-06-07T09:50:14.564Z,83.15
2023-06-07T09:52:43.665Z,77.96
2023-06-07T09:55:27.907Z,72.05
2023-06-07T09:57:59.465Z,70.43
2023-06-07T10:00:27.754Z,70.74
2023-06-07T10:03:07.388Z,70.50
2023-06-07T10:05:35.764Z,69.86
2023-06-07T10:08:04.850Z,69.92
2023-06-07T10:10:36.371Z,69.53
2023-06-07T10:13:07.325Z,71.19
2023-06-07T10:15:36.993Z,71.82
2023-06-07T10:18:26.188Z,69.79
2023-06-07T10:21:03.400Z,68.57
2023-06-07T10:24:03.958Z,64.84
2023-06-07T10:26:50.097Z,61.91
2023-06-07T10:29:39.915Z,58.19
2023-06-07T10:32:13.738Z,55.19
2023-06-07T10:34:42.979Z,49.03
2023-06-07T10:37:11.413Z,47.75
2023-06-07T10:39:39.817Z,46.06
2023-06-07T10:42:08.181Z,43.40
2023-06-07T10:44:38.424Z,40.70
2023-06-07T10:47:23.897Z,40.08
2023-06-07T10:49:52.467Z,38.00
2023-06-07T10:52:20.094Z,37.23
2023-06-07T10:54:48.243Z,37.12
2023-06-07T10:57:15.817Z,36.83
2023-06-07T10:59:44.184Z,38.36
2023-06-07T11:02:25.314Z,40.12
2023-06-07T11:05:01.399Z,42.21
2023-06-07T11:07:34.183Z,44.13
2023-06-07T11:10:08.914Z,42.49
2023-06-07T11:12:37.314Z,42.08
2023-06-07T11:15:26.397Z,40.86
2023-06-07T11:18:06.749Z,42.08
2023-06-07T11:20:40.763Z,43.84
2023-06-07T11:23:28.696Z,45.24
2023-06-07T11:26:04.438Z,46.18
2023-06-07T11:28:34.882Z,46.21
2023-06-07T11:31:08.003Z,47.63
2023-06-07T11:33:37.611Z,48.41
2023-06-07T11:36:10.900Z,50.13
2023-06-07T11:38:39.373Z,50.73
2023-06-07T11:41:07.870Z,52.30
2023-06-07T11:43:35.550Z,56.95
2023-06-07T11:46:03.322Z,60.36
2023-06-07T11:48:32.062Z,65.10
2023-06-07T11:51:02.309Z,73.33
2023-06-07T11:53:30.795Z,74.20
2023-06-07T11:56:00.105Z,79.35
2023-06-07T11:58:28.002Z,82.23
2023-06-07T12:00:57.918Z,80.75
2023-06-07T12:03:26.929Z,78.82
2023-06-07T12:05:55.413Z,84.89
2023-06-07T12:08:24.132Z,90.26
2023-06-07T12:10:56.241Z,95.39
2023-06-07T12:13:24.903Z,94.85
2023-06-07T12:15:57.821Z,95.37
2023-06-07T12:18:31.411Z,100.00
2023-06-07T12:21:07.267Z,100.00
2023-06-07T12:23:38.674Z,100.00
2023-06-07T12:26:11.483Z,100.00
2023-06-07T12:28:44.610Z,100.00
2023-06-07T12:31:23.747Z,100.00
2023-06-07T12:34:08.181Z,100.00
2023-06-07T12:36:39.327Z,100.00
2023-06-07T12:39:13.848Z,100.00
2023-06-07T12:41:41.843Z,100.00
2023-06-07T12:44:11.075Z,100.00
2023-06-07T12:46:41.295Z,100.00
2023-06-07T12:49:08.806Z,100.00
2023-06-07T12:51:38.052Z,100.00
2023-06-07T12:54:05.748Z,100.00
2023-06-07T12:56:33.770Z,100.00
2023-06-07T12:59:03.871Z,100.00
2023-06-07T13:01:32.596Z,100.00
2023-06-07T13:04:01.959Z,100.00
2023-06-07T13:06:30.376Z,100.00
2023-06-07T13:09:08.832Z,100.00
2023-06-07T13:11:38.901Z,100.00
2023-06-07T13:14:06.987Z,100.00
2023-06-07T13:16:35.754Z,100.00
2023-06-07T13:19:03.784Z,100.00
2023-06-07T13:21:31.920Z,100.00
2023-06-07T13:23:59.680Z,100.00
2023-06-07T13:26:27.708Z,100.00
2023-06-07T13:28:55.179Z,100.00
2023-06-07T13:31:23.063Z,100.00
2023-06-07T13:33:50.924Z,100.00
2023-06-07T13:36:18.891Z,100.00
2023-06-07T13:38:46.972Z,100.00
2023-06-07T13:41:14.728Z,100.00
2023-06-07T13:46:13.013Z,100.00
2023-06-07T13:48:42.754Z,100.00
2023-06-07T13:51:13.550Z,100.00
2023-06-07T13:53:42.647Z,100.00
2023-06-07T13:56:11.672Z,100.00
2023-06-07T13:58:39.428Z,100.00
2023-06-07T14:01:07.440Z,100.00
2023-06-07T14:03:36.418Z,100.00
2023-06-07T14:06:04.607Z,100.00
2023-06-07T14:08:32.628Z,100.00
2023-06-07T14:11:01.626Z,100.00
2023-06-07T14:13:29.472Z,100.00
2023-06-07T14:15:57.600Z,100.00
2023-06-07T14:18:26.584Z,100.00
2023-06-07T14:20:54.549Z,100.00
2023-06-07T14:23:22.022Z,100.00
2023-06-07T14:25:49.762Z,100.00
2023-06-07T14:28:19.371Z,100.00
2023-06-07T14:30:48.035Z,100.00
2023-06-07T14:33:15.636Z,100.00
2023-06-07T14:35:43.695Z,100.00
2023-06-07T14:38:11.163Z,100.00
2023-06-07T14:40:39.122Z,100.00
2023-06-07T14:43:06.699Z,100.00
2023-06-07T14:45:34.761Z,100.00
2023-06-07T14:48:06.173Z,100.00
2023-06-07T14:50:34.411Z,100.00
2023-06-07T14:53:02.017Z,100.00
2023-06-07T14:55:30.003Z,100.00
2023-06-07T14:58:00.805Z,100.00
2023-06-07T15:00:32.583Z,100.00
2023-06-07T15:03:00.320Z,100.00
2023-06-07T15:05:29.285Z,100.00
2023-06-07T15:08:00.110Z,100.00
2023-06-07T15:10:29.969Z,100.00
2023-06-07T15:12:59.671Z,100.00
2023-06-07T15:15:34.131Z,100.00
2023-06-07T15:18:09.460Z,100.00
2023-06-07T15:20:41.574Z,100.00
2023-06-07T15:23:10.266Z,100.00
2023-06-07T15:25:39.036Z,100.00
2023-06-07T15:28:06.764Z,100.00
2023-06-07T15:30:34.750Z,100.00
2023-06-07T15:33:02.285Z,100.00
2023-06-07T15:35:30.088Z,100.00
2023-06-07T15:37:57.997Z,100.00
2023-06-07T15:40:25.971Z,100.00
2023-06-07T15:42:53.482Z,100.00
2023-06-07T15:45:21.277Z,100.00
2023-06-07T15:48:05.245Z,100.00
2023-06-07T15:50:33.358Z,100.00
2023-06-07T15:53:02.981Z,100.00
2023-06-07T15:55:31.021Z,100.00
2023-06-07T15:57:59.048Z,100.00
2023-06-07T16:00:37.855Z,100.00
2023-06-07T16:03:07.047Z,100.00
2023-06-07T16:05:35.031Z,100.00
2023-06-07T16:08:12.222Z,100.00
2023-06-07T16:10:41.856Z,100.00
2023-06-07T16:13:09.362Z,100.00
2023-06-07T16:15:37.709Z,100.00
2023-06-07T16:18:06.533Z,100.00
2023-06-07T16:20:34.499Z,100.00
2023-06-07T16:23:02.030Z,100.00
2023-06-07T16:25:30.241Z,100.00
2023-06-07T16:27:57.834Z,100.00
2023-06-07T16:30:26.831Z,100.00
2023-06-07T16:32:55.421Z,100.00
2023-06-07T16:35:23.469Z,100.00
2023-06-07T16:37:51.050Z,100.00
2023-06-07T16:40:18.914Z,100.00
2023-06-07T16:42:47.450Z,100.00
2023-06-07T16:45:15.452Z,100.00
2023-06-07T16:47:42.937Z,100.00
2023-06-07T16:50:13.396Z,100.00
2023-06-07T16:52:40.900Z,100.00
2023-06-07T16:55:09.229Z,100.00
2023-06-07T16:57:40.021Z,100.00
2023-06-07T17:00:09.300Z,100.00
2023-06-07T17:02:37.086Z,100.00
2023-06-07T17:05:05.276Z,100.00
2023-06-07T17:07:32.792Z,100.00
2023-06-07T17:10:00.631Z,100.00
2023-06-07T17:12:29.447Z,100.00
2023-06-07T17:14:57.395Z,100.00
2023-06-07T17:17:25.134Z,100.00
2023-06-07T17:19:53.428Z,100.00
2023-06-07T17:22:20.891Z,100.00
2023-06-07T17:24:48.758Z,100.00
2023-06-07T17:27:16.456Z,100.00
2023-06-07T17:29:44.270Z,100.00
2023-06-07T17:32:11.959Z,100.00
2023-06-07T17:34:39.739Z,100.00
2023-06-07T17:37:08.804Z,100.00
2023-06-07T17:39:36.706Z,100.00
2023-06-07T17:42:04.507Z,100.00
2023-06-07T17:44:32.382Z,100.00
2023-06-07T17:46:59.753Z,100.00
2023-06-07T17:49:27.838Z,100.00
2023-06-07T17:51:58.373Z,100.00
2023-06-07T17:54:28.581Z,100.00
2023-06-07T17:56:56.248Z,100.00
2023-06-07T17:59:26.069Z,100.00
2023-06-07T18:01:56.978Z,100.00
2023-06-07T18:04:26.274Z,100.00
2023-06-07T18:06:54.554Z,100.00
2023-06-07T18:09:22.608Z,100.00
2023-06-07T18:11:50.701Z,100.00
2023-06-07T18:14:18.858Z,100.00
2023-06-07T18:16:46.905Z,100.00
2023-06-07T18:19:15.302Z,100.00
2023-06-07T18:21:43.291Z,100.00
2023-06-07T18:24:11.749Z,100.00
2023-06-07T18:26:39.780Z,100.00
2023-06-07T18:29:08.044Z,100.00
2023-06-07T18:31:36.126Z,100.00
2023-06-07T18:34:04.504Z,100.00
2023-06-07T18:36:32.174Z,100.00
2023-06-07T18:39:00.857Z,100.00
2023-06-07T18:41:28.487Z,100.00
2023-06-07T18:43:58.607Z,100.00
2023-06-07T18:46:26.219Z,100.00
2023-06-07T18:48:54.418Z,100.00
2023-06-07T18:51:22.978Z,100.00
2023-06-07T18:53:51.901Z,100.00
2023-06-07T18:56:20.153Z,100.00
2023-06-07T18:58:49.397Z,100.00
2023-06-07T19:01:16.924Z,100.00
2023-06-07T19:03:45.455Z,100.00
2023-06-07T19:06:14.044Z,100.00
2023-06-07T19:08:45.686Z,100.00
2023-06-07T19:11:13.182Z,100.00
2023-06-07T19:13:41.722Z,100.00
2023-06-07T19:16:09.139Z,100.00
2023-06-07T19:18:38.711Z,100.00
2023-06-07T19:21:06.874Z,100.00
2023-06-07T19:23:34.937Z,100.00
2023-06-07T19:26:03.067Z,100.00
2023-06-07T19:28:31.980Z,100.00
2023-06-07T19:31:00.339Z,100.00
2023-06-07T19:33:29.740Z,100.00
2023-06-07T19:35:57.195Z,100.00
2023-06-07T19:38:26.345Z,100.00
2023-06-07T19:40:53.955Z,100.00
2023-06-07T19:43:21.956Z,100.00
2023-06-07T19:45:49.573Z,100.00
2023-06-07T19:48:18.444Z,100.00
2023-06-07T19:50:45.895Z,100.00
2023-06-07T19:53:13.852Z,100.00
2023-06-07T19:55:41.992Z,100.00
2023-06-07T19:58:10.974Z,100.00
2023-06-07T20:00:39.370Z,100.00
2023-06-07T20:03:07.471Z,100.00
2023-06-07T20:05:35.738Z,100.00
2023-06-07T20:08:08.910Z,100.00
2023-06-07T20:10:37.065Z,100.00
2023-06-07T20:13:05.018Z,100.00
2023-06-07T20:15:32.472Z,100.00
2023-06-07T20:18:01.404Z,100.00
2023-06-07T20:20:29.082Z,100.00
2023-06-07T20:22:56.905Z,100.00
2023-06-07T20:25:25.841Z,100.00
2023-06-07T20:27:53.684Z,100.00
2023-06-07T20:30:21.852Z,100.00
2023-06-07T20:32:49.834Z,100.00
2023-06-07T20:35:17.393Z,100.00
2023-06-07T20:37:45.142Z,100.00
2023-06-07T20:40:13.419Z,100.00
2023-06-07T20:42:43.200Z,100.00
2023-06-07T20:45:11.891Z,100.00
2023-06-07T20:47:40.161Z,100.00
2023-06-07T20:50:10.648Z,100.00
2023-06-07T20:52:38.534Z,100.00
2023-06-07T20:55:06.572Z,100.00
2023-06-07T20:57:34.076Z,100.00
2023-06-07T21:00:05.146Z,100.00
2023-06-07T21:02:35.846Z,100.00
2023-06-07T21:05:04.499Z,100.00
2023-06-07T21:07:32.270Z,100.00
2023-06-07T21:10:00.358Z,100.00
2023-06-07T21:12:27.873Z,100.00
2023-06-07T21:14:57.753Z,100.00
2023-06-07T21:17:26.074Z,100.00
2023-06-07T21:19:54.157Z,100.00
2023-06-07T21:22:21.541Z,100.00
2023-06-07T21:24:49.233Z,100.00
2023-06-07T21:27:17.153Z,100.00
2023-06-07T21:29:44.888Z,100.00
2023-06-07T21:32:12.368Z,100.00
2023-06-07T21:34:40.049Z,100.00
2023-06-07T21:37:07.662Z,100.00
2023-06-07T21:39:35.551Z,100.00
2023-06-07T21:42:03.724Z,100.00
2023-06-07T21:44:31.581Z,100.00
2023-06-07T21:46:58.986Z,100.00
2023-06-07T21:49:26.728Z,100.00
2023-06-07T21:51:54.101Z,100.00
2023-06-07T21:54:21.948Z,100.00
2023-06-07T21:56:49.419Z,100.00
2023-06-07T21:59:17.128Z,100.00
2023-06-07T22:01:44.641Z,100.00
2023-06-07T22:04:12.515Z,100.00
2023-06-07T22:06:40.028Z,100.00
2023-06-07T22:09:07.756Z,100.00
2023-06-07T22:11:35.201Z,100.00
2023-06-07T22:14:04.084Z,100.00
2023-06-07T22:16:35.453Z,100.00
2023-06-07T22:19:03.310Z,100.00
2023-06-07T22:21:31.659Z,100.00
2023-06-07T22:23:59.447Z,100.00
2023-06-07T22:26:30.548Z,100.00
2023-06-07T22:29:01.533Z,100.00
2023-06-07T22:31:33.238Z,100.00
2023-06-07T22:34:10.524Z,100.00
2023-06-07T22:36:44.145Z,100.00
2023-06-07T22:39:13.296Z,100.00
2023-06-07T22:41:41.923Z,100.00
2023-06-07T22:44:10.737Z,100.00
2023-06-07T22:46:39.172Z,100.00
2023-06-07T22:49:07.099Z,100.00
2023-06-07T22:51:34.929Z,100.00
2023-06-07T22:54:03.851Z,100.00
2023-06-07T22:56:32.153Z,100.00
2023-06-07T22:58:59.947Z,100.00
2023-06-07T23:01:30.874Z,100.00
2023-06-07T23:03:58.835Z,100.00
2023-06-07T23:06:32.638Z,100.00
2023-06-07T23:09:02.493Z,100.00
2023-06-07T23:11:30.476Z,100.00
2023-06-07T23:14:01.413Z,100.00
2023-06-07T23:16:29.530Z,100.00
2023-06-07T23:18:58.459Z,100.00
2023-06-07T23:21:27.010Z,100.00
2023-06-07T23:23:54.787Z,100.00
2023-06-07T23:26:23.534Z,100.00
2023-06-07T23:28:51.366Z,100.00
2023-06-07T23:31:18.822Z,100.00
2023-06-07T23:33:46.646Z,100.00
2023-06-07T23:36:16.400Z,100.00
2023-06-07T23:38:45.382Z,100.00
2023-06-07T23:41:13.723Z,100.00
2023-06-07T23:43:41.589Z,100.00
2023-06-07T23:46:09.052Z,100.00
2023-06-07T23:48:40.321Z,100.00
2023-06-07T23:51:07.741Z,100.00
2023-06-07T23:53:35.577Z,100.00
2023-06-07T23:56:02.990Z,100.00
2023-06-07T23:58:31.217Z,100.00
